createdAt,value
2023-05-21T13:03:39.983Z,38.37
2023-05-21T13:11:10.708Z,33.39
2023-05-21T13:16:13.694Z,31.50
2023-05-21T13:21:16.556Z,30.91
2023-05-21T13:26:21.237Z,30.32
2023-05-21T13:31:24.141Z,30.22
2023-05-21T13:36:26.932Z,29.19
2023-05-21T13:41:31.427Z,28.33
2023-05-21T13:46:39.445Z,28.87
2023-05-21T13:51:42.416Z,29.31
2023-05-21T13:56:46.617Z,29.63
2023-05-21T14:01:50.493Z,30.01
2023-05-21T14:06:53.516Z,30.47
2023-05-21T14:11:58.788Z,30.98
2023-05-21T14:17:01.728Z,31.35
2023-05-21T14:22:04.611Z,32.06
2023-05-21T14:27:08.950Z,32.64
2023-05-21T14:32:16.122Z,32.35
2023-05-21T14:37:21.373Z,31.47
2023-05-21T14:42:25.692Z,30.76
2023-05-21T14:47:28.740Z,30.16
2023-05-21T14:52:31.630Z,29.63
2023-05-21T14:57:36.079Z,29.41
2023-05-21T15:02:39.170Z,29.20
2023-05-21T15:07:42.067Z,29.10
2023-05-21T15:12:46.263Z,29.06
2023-05-21T15:17:49.670Z,29.31
2023-05-21T15:22:56.866Z,30.03
2023-05-21T15:28:09.523Z,30.38
2023-05-21T15:33:12.510Z,30.42
2023-05-21T15:38:15.394Z,30.64
2023-05-21T15:43:20.298Z,31.55
2023-05-21T15:48:23.427Z,32.03
2023-05-21T15:53:26.262Z,33.21
2023-05-21T15:58:31.178Z,34.43
2023-05-21T16:03:33.986Z,35.27
2023-05-21T16:08:36.864Z,35.15
2023-05-21T16:13:41.093Z,34.06
2023-05-21T16:18:43.999Z,33.29
2023-05-21T16:23:46.904Z,32.26
2023-05-21T16:28:51.257Z,30.73
2023-05-21T16:33:54.213Z,29.57
2023-05-21T16:38:56.969Z,28.71
2023-05-21T16:44:01.097Z,28.08
2023-05-21T16:49:03.974Z,27.60
2023-05-21T16:54:06.753Z,27.26
2023-05-21T16:59:10.994Z,27.00
2023-05-21T17:04:13.769Z,26.79
2023-05-21T17:09:18.109Z,26.59
2023-05-21T17:14:33.151Z,26.31
2023-05-21T17:19:37.496Z,26.07
2023-05-21T17:24:40.470Z,25.86
2023-05-21T17:29:44.585Z,25.62
2023-05-21T17:34:47.518Z,25.44
2023-05-21T17:39:50.448Z,25.22
2023-05-21T17:44:54.754Z,24.96
2023-05-21T17:49:57.686Z,24.79
2023-05-21T17:55:00.920Z,24.68
2023-05-21T18:00:07.006Z,24.51
2023-05-21T18:05:19.005Z,24.48
2023-05-21T18:10:22.016Z,24.41
2023-05-21T18:15:26.448Z,24.34
2023-05-21T18:20:30.056Z,24.23
2023-05-21T18:25:33.117Z,24.13
2023-05-21T18:30:38.026Z,23.97
2023-05-21T18:35:42.369Z,23.85
2023-05-21T18:40:45.394Z,23.69
2023-05-21T18:45:49.517Z,23.57
2023-05-21T18:50:52.948Z,23.41
2023-05-21T18:55:55.966Z,23.31
2023-05-21T19:01:00.206Z,23.12
2023-05-21T19:06:03.525Z,22.99
2023-05-21T19:11:07.433Z,22.90
2023-05-21T19:16:11.834Z,22.90
2023-05-21T19:21:14.832Z,22.85
2023-05-21T19:26:17.740Z,22.66
2023-05-21T19:31:22.284Z,22.52
2023-05-21T19:36:25.465Z,22.48
2023-05-21T19:41:28.442Z,22.36
2023-05-21T19:46:33.060Z,22.22
2023-05-21T19:51:35.990Z,22.11
2023-05-21T19:56:38.908Z,21.91
2023-05-21T20:01:44.325Z,21.75
2023-05-21T20:06:47.278Z,21.66
2023-05-21T20:11:50.202Z,21.58
2023-05-21T20:16:54.611Z,21.52
2023-05-21T20:21:58.028Z,21.46
2023-05-21T20:27:01.703Z,21.33
2023-05-21T20:32:06.987Z,21.24
2023-05-21T20:37:09.945Z,21.21
2023-05-21T20:42:14.974Z,21.15
2023-05-21T20:47:20.193Z,21.02
2023-05-21T20:52:23.753Z,20.94
2023-05-21T20:57:27.380Z,20.84
2023-05-21T21:02:32.705Z,20.74
2023-05-21T21:07:36.883Z,20.74
2023-05-21T21:12:39.598Z,20.65
2023-05-21T21:17:43.798Z,20.54
2023-05-21T21:22:47.260Z,20.44
2023-05-21T21:27:50.371Z,20.36
2023-05-21T21:32:54.646Z,20.32
2023-05-21T21:37:57.611Z,20.31
2023-05-21T21:43:00.400Z,20.32
2023-05-21T21:48:04.796Z,20.27
2023-05-21T21:53:07.654Z,20.18
2023-05-21T21:58:10.475Z,20.11
2023-05-21T22:03:14.886Z,20.06
2023-05-21T22:08:17.918Z,20.00
2023-05-21T22:13:20.745Z,19.94
2023-05-21T22:18:39.463Z,19.88
2023-05-21T22:23:43.410Z,19.84
2023-05-21T22:28:46.251Z,19.77
2023-05-21T22:33:50.367Z,19.71
2023-05-21T22:38:53.298Z,19.71
2023-05-21T22:43:56.149Z,19.68
2023-05-21T22:49:00.702Z,19.61
2023-05-21T22:54:03.572Z,19.63
2023-05-21T22:59:06.339Z,19.58
2023-05-21T23:04:10.527Z,19.52
2023-05-21T23:09:14.020Z,19.42
2023-05-21T23:14:16.758Z,19.35
2023-05-21T23:19:21.279Z,19.31
2023-05-21T23:24:24.276Z,19.25
2023-05-21T23:29:27.020Z,19.21
2023-05-21T23:34:31.331Z,19.17
2023-05-21T23:39:34.138Z,19.13
2023-05-21T23:44:36.880Z,19.09
2023-05-21T23:49:41.435Z,19.08
2023-05-21T23:54:44.204Z,19.07
2023-05-21T23:59:46.972Z,19.10
